sensor_id;sensor_type;location;lat;lon;timestamp;temperature;humidity
52943;DHT22;38809;53.300;6.614;2022-07-23T00:00:52;15.50;99.90
52943;DHT22;38809;53.300;6.614;2022-07-23T00:03:18;15.50;99.90
52943;DHT22;38809;53.300;6.614;2022-07-23T00:05:44;15.50;99.90
52943;DHT22;38809;53.300;6.614;2022-07-23T00:08:09;15.40;99.90
52943;DHT22;38809;53.300;6.614;2022-07-23T00:10:35;15.40;99.90
52943;DHT22;38809;53.300;6.614;2022-07-23T00:13:01;15.40;99.90
52943;DHT22;38809;53.300;6.614;2022-07-23T00:15:27;15.40;99.90
52943;DHT22;38809;53.300;6.614;2022-07-23T00:17:53;15.40;99.90
52943;DHT22;38809;53.300;6.614;2022-07-23T00:20:18;15.30;99.90
52943;DHT22;38809;53.300;6.614;2022-07-23T00:22:51;15.30;99.90
52943;DHT22;38809;53.300;6.614;2022-07-23T00:25:17;15.20;99.90
52943;DHT22;38809;53.300;6.614;2022-07-23T00:27:43;15.30;99.90
52943;DHT22;38809;53.300;6.614;2022-07-23T00:30:09;15.20;99.90
52943;DHT22;38809;53.300;6.614;2022-07-23T00:32:49;15.10;99.90
52943;DHT22;38809;53.300;6.614;2022-07-23T00:35:18;15.10;99.90
52943;DHT22;38809;53.300;6.614;2022-07-23T00:37:44;15.20;99.90
52943;DHT22;38809;53.300;6.614;2022-07-23T00:40:11;15.10;99.90
52943;DHT22;38809;53.300;6.614;2022-07-23T00:42:36;15.10;99.90
52943;DHT22;38809;53.300;6.614;2022-07-23T00:45:03;15.10;99.90
52943;DHT22;38809;53.300;6.614;2022-07-23T00:47:28;15.10;99.90
52943;DHT22;38809;53.300;6.614;2022-07-23T00:49:54;15.20;99.90
52943;DHT22;38809;53.300;6.614;2022-07-23T00:52:20;15.10;99.90
52943;DHT22;38809;53.300;6.614;2022-07-23T00:54:46;15.10;99.90
52943;DHT22;38809;53.300;6.614;2022-07-23T00:57:12;15.10;99.90
52943;DHT22;38809;53.300;6.614;2022-07-23T00:59:41;15.10;99.90
52943;DHT22;38809;53.300;6.614;2022-07-23T01:02:07;15.20;99.90
52943;DHT22;38809;53.300;6.614;2022-07-23T01:04:33;15.30;99.90
52943;DHT22;38809;53.300;6.614;2022-07-23T01:06:59;15.30;99.90
52943;DHT22;38809;53.300;6.614;2022-07-23T01:09:25;15.20;99.90
52943;DHT22;38809;53.300;6.614;2022-07-23T01:11:51;15.10;99.90
52943;DHT22;38809;53.300;6.614;2022-07-23T01:14:19;15.10;99.90
52943;DHT22;38809;53.300;6.614;2022-07-23T01:16:46;15.20;99.90
52943;DHT22;38809;53.300;6.614;2022-07-23T01:19:13;15.10;99.90
52943;DHT22;38809;53.300;6.614;2022-07-23T01:21:46;15.20;99.90
52943;DHT22;38809;53.300;6.614;2022-07-23T01:24:13;15.10;99.90
52943;DHT22;38809;53.300;6.614;2022-07-23T01:26:39;15.10;99.90
52943;DHT22;38809;53.300;6.614;2022-07-23T01:29:05;15.20;99.90
52943;DHT22;38809;53.300;6.614;2022-07-23T01:31:31;15.30;99.90
52943;DHT22;38809;53.300;6.614;2022-07-23T01:33:57;15.20;99.90
52943;DHT22;38809;53.300;6.614;2022-07-23T01:36:23;15.20;99.90
52943;DHT22;38809;53.300;6.614;2022-07-23T01:38:49;15.20;99.90
52943;DHT22;38809;53.300;6.614;2022-07-23T01:41:16;15.10;99.90
52943;DHT22;38809;53.300;6.614;2022-07-23T01:43:42;15.20;99.90
52943;DHT22;38809;53.300;6.614;2022-07-23T01:46:07;15.10;99.90
52943;DHT22;38809;53.300;6.614;2022-07-23T01:48:33;15.10;99.90
52943;DHT22;38809;53.300;6.614;2022-07-23T01:50:59;15.10;99.90
52943;DHT22;38809;53.300;6.614;2022-07-23T01:53:25;14.60;99.90
52943;DHT22;38809;53.300;6.614;2022-07-23T01:55:50;15.10;99.90
52943;DHT22;38809;53.300;6.614;2022-07-23T01:58:16;15.10;99.90
52943;DHT22;38809;53.300;6.614;2022-07-23T02:00:41;15.00;99.90
52943;DHT22;38809;53.300;6.614;2022-07-23T02:03:07;15.10;99.90
52943;DHT22;38809;53.300;6.614;2022-07-23T02:05:33;15.00;99.90
52943;DHT22;38809;53.300;6.614;2022-07-23T02:07:59;15.10;99.90
52943;DHT22;38809;53.300;6.614;2022-07-23T02:10:25;15.10;99.90
52943;DHT22;38809;53.300;6.614;2022-07-23T02:12:51;15.10;99.90
52943;DHT22;38809;53.300;6.614;2022-07-23T02:15:17;15.00;99.90
52943;DHT22;38809;53.300;6.614;2022-07-23T02:17:43;15.00;99.90
52943;DHT22;38809;53.300;6.614;2022-07-23T02:20:10;15.00;99.90
52943;DHT22;38809;53.300;6.614;2022-07-23T02:22:36;15.00;99.90
52943;DHT22;38809;53.300;6.614;2022-07-23T02:25:02;15.00;99.90
52943;DHT22;38809;53.300;6.614;2022-07-23T02:27:28;15.00;99.90
52943;DHT22;38809;53.300;6.614;2022-07-23T02:29:54;15.00;99.90
52943;DHT22;38809;53.300;6.614;2022-07-23T02:32:20;15.00;99.90
52943;DHT22;38809;53.300;6.614;2022-07-23T02:34:47;14.90;99.90
52943;DHT22;38809;53.300;6.614;2022-07-23T02:37:13;14.90;99.90
52943;DHT22;38809;53.300;6.614;2022-07-23T02:39:38;15.00;99.90
52943;DHT22;38809;53.300;6.614;2022-07-23T02:42:04;15.00;99.90
52943;DHT22;38809;53.300;6.614;2022-07-23T02:44:30;15.00;99.90
52943;DHT22;38809;53.300;6.614;2022-07-23T02:46:56;15.00;99.90
52943;DHT22;38809;53.300;6.614;2022-07-23T02:49:21;15.00;99.90
52943;DHT22;38809;53.300;6.614;2022-07-23T02:51:47;14.90;99.90
52943;DHT22;38809;53.300;6.614;2022-07-23T02:54:13;14.90;99.90
52943;DHT22;38809;53.300;6.614;2022-07-23T02:56:38;14.90;99.90
52943;DHT22;38809;53.300;6.614;2022-07-23T02:59:04;14.90;99.90
52943;DHT22;38809;53.300;6.614;2022-07-23T03:01:30;14.90;99.90
52943;DHT22;38809;53.300;6.614;2022-07-23T03:03:55;14.80;99.90
52943;DHT22;38809;53.300;6.614;2022-07-23T03:06:21;14.90;99.90
52943;DHT22;38809;53.300;6.614;2022-07-23T03:08:47;14.90;99.90
52943;DHT22;38809;53.300;6.614;2022-07-23T03:11:12;14.90;99.90
52943;DHT22;38809;53.300;6.614;2022-07-23T03:13:39;14.90;99.90
52943;DHT22;38809;53.300;6.614;2022-07-23T03:16:06;14.90;99.90
52943;DHT22;38809;53.300;6.614;2022-07-23T03:18:32;14.90;99.90
52943;DHT22;38809;53.300;6.614;2022-07-23T03:20:58;14.90;99.90
52943;DHT22;38809;53.300;6.614;2022-07-23T03:23:24;14.80;99.90
52943;DHT22;38809;53.300;6.614;2022-07-23T03:25:50;14.90;99.90
52943;DHT22;38809;53.300;6.614;2022-07-23T03:28:16;14.90;99.90
52943;DHT22;38809;53.300;6.614;2022-07-23T03:30:43;14.90;99.90
52943;DHT22;38809;53.300;6.614;2022-07-23T03:33:12;14.90;99.90
52943;DHT22;38809;53.300;6.614;2022-07-23T03:35:38;14.90;99.90
52943;DHT22;38809;53.300;6.614;2022-07-23T03:38:04;14.90;99.90
52943;DHT22;38809;53.300;6.614;2022-07-23T03:40:29;14.90;99.90
52943;DHT22;38809;53.300;6.614;2022-07-23T03:42:55;14.90;99.90
52943;DHT22;38809;53.300;6.614;2022-07-23T03:45:21;14.70;99.90
52943;DHT22;38809;53.300;6.614;2022-07-23T03:47:46;14.80;99.90
52943;DHT22;38809;53.300;6.614;2022-07-23T03:50:12;14.80;99.90
52943;DHT22;38809;53.300;6.614;2022-07-23T03:52:38;14.80;99.90
52943;DHT22;38809;53.300;6.614;2022-07-23T03:55:04;14.80;99.90
52943;DHT22;38809;53.300;6.614;2022-07-23T03:57:30;14.70;99.90
52943;DHT22;38809;53.300;6.614;2022-07-23T03:59:56;14.70;99.90
52943;DHT22;38809;53.300;6.614;2022-07-23T04:02:22;14.70;99.90
52943;DHT22;38809;53.300;6.614;2022-07-23T04:04:47;14.80;99.90
52943;DHT22;38809;53.300;6.614;2022-07-23T04:07:13;14.80;99.90
52943;DHT22;38809;53.300;6.614;2022-07-23T04:09:39;14.80;99.90
52943;DHT22;38809;53.300;6.614;2022-07-23T04:12:08;14.80;99.90
52943;DHT22;38809;53.300;6.614;2022-07-23T04:14:34;14.80;99.90
52943;DHT22;38809;53.300;6.614;2022-07-23T04:16:59;14.80;99.90
52943;DHT22;38809;53.300;6.614;2022-07-23T04:19:25;14.80;99.90
52943;DHT22;38809;53.300;6.614;2022-07-23T04:21:51;14.80;99.90
52943;DHT22;38809;53.300;6.614;2022-07-23T04:24:17;14.80;99.90
52943;DHT22;38809;53.300;6.614;2022-07-23T04:26:44;14.80;99.90
52943;DHT22;38809;53.300;6.614;2022-07-23T04:29:10;14.90;99.90
52943;DHT22;38809;53.300;6.614;2022-07-23T04:31:35;14.90;99.90
52943;DHT22;38809;53.300;6.614;2022-07-23T04:34:01;14.90;99.90
52943;DHT22;38809;53.300;6.614;2022-07-23T04:36:27;14.90;99.90
52943;DHT22;38809;53.300;6.614;2022-07-23T04:38:53;14.90;99.90
52943;DHT22;38809;53.300;6.614;2022-07-23T04:41:19;14.90;99.90
52943;DHT22;38809;53.300;6.614;2022-07-23T04:43:45;14.90;99.90
52943;DHT22;38809;53.300;6.614;2022-07-23T04:46:10;15.00;99.90
52943;DHT22;38809;53.300;6.614;2022-07-23T04:48:36;15.00;99.90
52943;DHT22;38809;53.300;6.614;2022-07-23T04:51:03;14.90;99.90
52943;DHT22;38809;53.300;6.614;2022-07-23T04:53:28;14.90;99.90
52943;DHT22;38809;53.300;6.614;2022-07-23T04:55:54;15.00;99.90
52943;DHT22;38809;53.300;6.614;2022-07-23T04:58:20;15.00;99.90
52943;DHT22;38809;53.300;6.614;2022-07-23T05:00:46;15.10;99.90
52943;DHT22;38809;53.300;6.614;2022-07-23T05:03:12;15.10;99.90
52943;DHT22;38809;53.300;6.614;2022-07-23T05:05:38;15.10;99.90
52943;DHT22;38809;53.300;6.614;2022-07-23T05:08:04;15.10;99.90
52943;DHT22;38809;53.300;6.614;2022-07-23T05:10:29;15.20;99.90
52943;DHT22;38809;53.300;6.614;2022-07-23T05:12:55;15.20;99.90
52943;DHT22;38809;53.300;6.614;2022-07-23T05:15:21;15.30;99.90
52943;DHT22;38809;53.300;6.614;2022-07-23T05:17:46;15.30;99.90
52943;DHT22;38809;53.300;6.614;2022-07-23T05:20:12;15.20;99.90
52943;DHT22;38809;53.300;6.614;2022-07-23T05:22:38;15.20;99.90
52943;DHT22;38809;53.300;6.614;2022-07-23T05:25:05;15.20;99.90
52943;DHT22;38809;53.300;6.614;2022-07-23T05:27:31;15.20;99.90
52943;DHT22;38809;53.300;6.614;2022-07-23T05:29:56;15.30;99.90
52943;DHT22;38809;53.300;6.614;2022-07-23T05:32:23;15.30;99.90
52943;DHT22;38809;53.300;6.614;2022-07-23T05:34:48;15.40;99.90
52943;DHT22;38809;53.300;6.614;2022-07-23T05:37:14;15.50;99.90
52943;DHT22;38809;53.300;6.614;2022-07-23T05:39:40;15.40;99.90
52943;DHT22;38809;53.300;6.614;2022-07-23T05:42:05;15.40;99.90
52943;DHT22;38809;53.300;6.614;2022-07-23T05:44:31;15.50;99.90
52943;DHT22;38809;53.300;6.614;2022-07-23T05:46:57;15.80;99.90
52943;DHT22;38809;53.300;6.614;2022-07-23T05:49:22;15.70;99.90
52943;DHT22;38809;53.300;6.614;2022-07-23T05:51:48;15.80;99.90
52943;DHT22;38809;53.300;6.614;2022-07-23T05:54:14;15.90;99.90
52943;DHT22;38809;53.300;6.614;2022-07-23T05:56:39;15.80;99.90
52943;DHT22;38809;53.300;6.614;2022-07-23T05:59:05;15.90;99.90
52943;DHT22;38809;53.300;6.614;2022-07-23T06:01:31;15.90;99.90
52943;DHT22;38809;53.300;6.614;2022-07-23T06:03:57;15.80;99.90
52943;DHT22;38809;53.300;6.614;2022-07-23T06:06:23;15.90;99.90
52943;DHT22;38809;53.300;6.614;2022-07-23T06:08:48;15.90;99.90
52943;DHT22;38809;53.300;6.614;2022-07-23T06:11:14;15.90;99.90
52943;DHT22;38809;53.300;6.614;2022-07-23T06:13:40;15.90;99.90
52943;DHT22;38809;53.300;6.614;2022-07-23T06:16:05;16.00;99.90
52943;DHT22;38809;53.300;6.614;2022-07-23T06:18:31;16.00;99.90
52943;DHT22;38809;53.300;6.614;2022-07-23T06:20:57;15.90;99.90
52943;DHT22;38809;53.300;6.614;2022-07-23T06:23:22;16.00;99.90
52943;DHT22;38809;53.300;6.614;2022-07-23T06:25:48;15.90;99.90
52943;DHT22;38809;53.300;6.614;2022-07-23T06:28:13;16.00;99.90
52943;DHT22;38809;53.300;6.614;2022-07-23T06:30:39;16.00;99.90
52943;DHT22;38809;53.300;6.614;2022-07-23T06:33:05;16.10;99.90
52943;DHT22;38809;53.300;6.614;2022-07-23T06:35:31;16.20;99.90
52943;DHT22;38809;53.300;6.614;2022-07-23T06:37:56;16.20;99.90
52943;DHT22;38809;53.300;6.614;2022-07-23T06:40:22;16.30;99.90
52943;DHT22;38809;53.300;6.614;2022-07-23T06:42:48;16.30;99.90
52943;DHT22;38809;53.300;6.614;2022-07-23T06:45:13;16.50;99.90
52943;DHT22;38809;53.300;6.614;2022-07-23T06:47:39;16.50;99.90
52943;DHT22;38809;53.300;6.614;2022-07-23T06:50:06;16.60;99.90
52943;DHT22;38809;53.300;6.614;2022-07-23T06:52:32;16.60;99.90
52943;DHT22;38809;53.300;6.614;2022-07-23T06:54:57;16.70;99.90
52943;DHT22;38809;53.300;6.614;2022-07-23T06:57:23;16.70;99.90
52943;DHT22;38809;53.300;6.614;2022-07-23T06:59:51;16.70;99.90
52943;DHT22;38809;53.300;6.614;2022-07-23T07:02:17;16.80;99.90
52943;DHT22;38809;53.300;6.614;2022-07-23T07:04:42;16.80;99.90
52943;DHT22;38809;53.300;6.614;2022-07-23T07:07:08;16.90;99.90
52943;DHT22;38809;53.300;6.614;2022-07-23T07:09:34;16.90;99.90
52943;DHT22;38809;53.300;6.614;2022-07-23T07:11:59;17.00;99.90
52943;DHT22;38809;53.300;6.614;2022-07-23T07:14:25;16.90;99.90
52943;DHT22;38809;53.300;6.614;2022-07-23T07:16:51;16.90;99.90
52943;DHT22;38809;53.300;6.614;2022-07-23T07:19:16;17.00;99.90
52943;DHT22;38809;53.300;6.614;2022-07-23T07:21:42;17.00;99.90
52943;DHT22;38809;53.300;6.614;2022-07-23T07:24:08;17.10;99.90
52943;DHT22;38809;53.300;6.614;2022-07-23T07:26:33;17.40;99.90
52943;DHT22;38809;53.300;6.614;2022-07-23T07:28:59;17.60;99.90
52943;DHT22;38809;53.300;6.614;2022-07-23T07:31:25;17.70;99.90
52943;DHT22;38809;53.300;6.614;2022-07-23T07:33:51;17.90;99.90
52943;DHT22;38809;53.300;6.614;2022-07-23T07:36:17;17.80;99.90
52943;DHT22;38809;53.300;6.614;2022-07-23T07:38:42;18.20;99.90
52943;DHT22;38809;53.300;6.614;2022-07-23T07:41:08;18.00;99.90
52943;DHT22;38809;53.300;6.614;2022-07-23T07:43:36;17.90;99.90
52943;DHT22;38809;53.300;6.614;2022-07-23T07:46:02;17.60;99.90
52943;DHT22;38809;53.300;6.614;2022-07-23T07:48:28;17.70;99.90
52943;DHT22;38809;53.300;6.614;2022-07-23T07:50:54;17.60;99.90
52943;DHT22;38809;53.300;6.614;2022-07-23T07:53:20;17.50;99.90
52943;DHT22;38809;53.300;6.614;2022-07-23T07:55:45;17.50;99.90
52943;DHT22;38809;53.300;6.614;2022-07-23T07:58:11;17.60;99.90
52943;DHT22;38809;53.300;6.614;2022-07-23T08:00:37;17.70;99.90
52943;DHT22;38809;53.300;6.614;2022-07-23T08:03:02;17.90;99.90
52943;DHT22;38809;53.300;6.614;2022-07-23T08:05:30;17.90;99.90
52943;DHT22;38809;53.300;6.614;2022-07-23T08:07:57;17.80;99.90
52943;DHT22;38809;53.300;6.614;2022-07-23T08:10:23;17.80;99.90
52943;DHT22;38809;53.300;6.614;2022-07-23T08:12:52;17.70;99.90
52943;DHT22;38809;53.300;6.614;2022-07-23T08:15:20;18.00;99.90
52943;DHT22;38809;53.300;6.614;2022-07-23T08:17:47;18.00;99.90
52943;DHT22;38809;53.300;6.614;2022-07-23T08:20:14;18.50;99.90
52943;DHT22;38809;53.300;6.614;2022-07-23T08:22:56;18.90;99.90
52943;DHT22;38809;53.300;6.614;2022-07-23T08:25:30;19.00;99.90
52943;DHT22;38809;53.300;6.614;2022-07-23T08:27:57;19.30;99.90
52943;DHT22;38809;53.300;6.614;2022-07-23T08:30:23;19.00;99.90
52943;DHT22;38809;53.300;6.614;2022-07-23T08:33:05;19.00;99.90
52943;DHT22;38809;53.300;6.614;2022-07-23T08:35:35;18.80;99.90
52943;DHT22;38809;53.300;6.614;2022-07-23T08:38:07;18.80;99.90
52943;DHT22;38809;53.300;6.614;2022-07-23T08:40:38;19.00;99.90
52943;DHT22;38809;53.300;6.614;2022-07-23T08:43:09;19.10;99.90
52943;DHT22;38809;53.300;6.614;2022-07-23T08:45:40;19.10;99.90
52943;DHT22;38809;53.300;6.614;2022-07-23T08:48:21;19.10;99.90
52943;DHT22;38809;53.300;6.614;2022-07-23T08:50:52;19.20;99.90
52943;DHT22;38809;53.300;6.614;2022-07-23T08:53:20;19.40;99.90
52943;DHT22;38809;53.300;6.614;2022-07-23T08:55:51;19.30;99.90
52943;DHT22;38809;53.300;6.614;2022-07-23T08:58:17;19.30;99.90
52943;DHT22;38809;53.300;6.614;2022-07-23T09:00:44;19.50;99.90
52943;DHT22;38809;53.300;6.614;2022-07-23T09:03:48;19.40;99.60
52943;DHT22;38809;53.300;6.614;2022-07-23T09:06:10;19.60;99.90
52943;DHT22;38809;53.300;6.614;2022-07-23T09:08:41;19.40;99.90
52943;DHT22;38809;53.300;6.614;2022-07-23T09:11:08;19.40;99.90
52943;DHT22;38809;53.300;6.614;2022-07-23T09:13:42;19.70;99.90
52943;DHT22;38809;53.300;6.614;2022-07-23T09:16:25;19.00;99.90
52943;DHT22;38809;53.300;6.614;2022-07-23T09:18:58;19.30;99.90
52943;DHT22;38809;53.300;6.614;2022-07-23T09:21:26;18.90;99.90
52943;DHT22;38809;53.300;6.614;2022-07-23T09:26:35;19.40;99.90
52943;DHT22;38809;53.300;6.614;2022-07-23T09:29:11;19.30;99.90
52943;DHT22;38809;53.300;6.614;2022-07-23T09:34:12;19.40;99.90
52943;DHT22;38809;53.300;6.614;2022-07-23T09:36:38;19.50;99.90
52943;DHT22;38809;53.300;6.614;2022-07-23T09:39:05;19.30;99.90
52943;DHT22;38809;53.300;6.614;2022-07-23T09:41:36;19.40;99.90
52943;DHT22;38809;53.300;6.614;2022-07-23T09:44:14;19.40;99.90
52943;DHT22;38809;53.300;6.614;2022-07-23T09:46:40;19.10;99.90
52943;DHT22;38809;53.300;6.614;2022-07-23T09:49:22;19.20;99.90
52943;DHT22;38809;53.300;6.614;2022-07-23T09:51:56;19.40;99.90
52943;DHT22;38809;53.300;6.614;2022-07-23T09:54:35;19.20;99.90
52943;DHT22;38809;53.300;6.614;2022-07-23T09:57:06;19.30;99.90
52943;DHT22;38809;53.300;6.614;2022-07-23T09:59:37;19.20;99.90
52943;DHT22;38809;53.300;6.614;2022-07-23T10:02:04;19.00;99.90
52943;DHT22;38809;53.300;6.614;2022-07-23T10:04:31;19.20;99.90
52943;DHT22;38809;53.300;6.614;2022-07-23T10:06:59;19.00;99.90
52943;DHT22;38809;53.300;6.614;2022-07-23T10:09:33;19.00;99.90
52943;DHT22;38809;53.300;6.614;2022-07-23T10:12:01;19.20;99.90
52943;DHT22;38809;53.300;6.614;2022-07-23T10:14:40;19.20;99.90
52943;DHT22;38809;53.300;6.614;2022-07-23T10:17:05;19.30;99.90
52943;DHT22;38809;53.300;6.614;2022-07-23T10:19:32;19.70;99.90
52943;DHT22;38809;53.300;6.614;2022-07-23T10:22:03;19.70;99.90
52943;DHT22;38809;53.300;6.614;2022-07-23T10:25:10;19.90;99.90
52943;DHT22;38809;53.300;6.614;2022-07-23T10:33:30;20.00;99.90
52943;DHT22;38809;53.300;6.614;2022-07-23T10:38:51;20.10;99.90
52943;DHT22;38809;53.300;6.614;2022-07-23T10:41:39;20.50;99.90
52943;DHT22;38809;53.300;6.614;2022-07-23T10:44:13;20.20;99.90
52943;DHT22;38809;53.300;6.614;2022-07-23T10:46:59;20.30;99.90
52943;DHT22;38809;53.300;6.614;2022-07-23T10:49:44;20.50;99.90
52943;DHT22;38809;53.300;6.614;2022-07-23T10:52:26;20.10;99.90
52943;DHT22;38809;53.300;6.614;2022-07-23T10:54:57;20.10;99.90
52943;DHT22;38809;53.300;6.614;2022-07-23T10:57:50;20.10;99.90
52943;DHT22;38809;53.300;6.614;2022-07-23T11:00:26;20.00;99.90
52943;DHT22;38809;53.300;6.614;2022-07-23T11:02:54;20.00;99.90
52943;DHT22;38809;53.300;6.614;2022-07-23T11:06:03;20.00;99.90
52943;DHT22;38809;53.300;6.614;2022-07-23T11:08:13;19.90;99.90
52943;DHT22;38809;53.300;6.614;2022-07-23T11:10:53;20.00;99.90
52943;DHT22;38809;53.300;6.614;2022-07-23T11:34:35;19.90;99.90
52943;DHT22;38809;53.300;6.614;2022-07-23T11:37:06;19.90;99.90
52943;DHT22;38809;53.300;6.614;2022-07-23T11:39:33;20.00;99.90
52943;DHT22;38809;53.300;6.614;2022-07-23T11:42:00;19.90;99.90
52943;DHT22;38809;53.300;6.614;2022-07-23T11:44:32;20.40;99.90
52943;DHT22;38809;53.300;6.614;2022-07-23T11:47:03;20.40;99.90
52943;DHT22;38809;53.300;6.614;2022-07-23T11:49:30;20.40;99.90
52943;DHT22;38809;53.300;6.614;2022-07-23T11:54:34;20.10;99.90
52943;DHT22;38809;53.300;6.614;2022-07-23T11:57:02;20.00;99.90
52943;DHT22;38809;53.300;6.614;2022-07-23T11:59:31;19.90;99.90
52943;DHT22;38809;53.300;6.614;2022-07-23T12:02:04;19.70;99.90
52943;DHT22;38809;53.300;6.614;2022-07-23T12:04:38;19.80;99.90
52943;DHT22;38809;53.300;6.614;2022-07-23T12:07:21;19.60;99.90
52943;DHT22;38809;53.300;6.614;2022-07-23T12:09:47;19.70;99.90
52943;DHT22;38809;53.300;6.614;2022-07-23T12:12:13;19.90;99.90
52943;DHT22;38809;53.300;6.614;2022-07-23T12:14:51;20.30;99.90
52943;DHT22;38809;53.300;6.614;2022-07-23T12:17:18;20.20;99.90
52943;DHT22;38809;53.300;6.614;2022-07-23T12:19:44;20.40;99.90
52943;DHT22;38809;53.300;6.614;2022-07-23T12:22:11;20.10;99.90
52943;DHT22;38809;53.300;6.614;2022-07-23T12:24:56;20.30;99.90
52943;DHT22;38809;53.300;6.614;2022-07-23T12:27:22;20.30;99.90
52943;DHT22;38809;53.300;6.614;2022-07-23T12:29:48;20.20;99.90
52943;DHT22;38809;53.300;6.614;2022-07-23T12:32:25;20.20;99.90
52943;DHT22;38809;53.300;6.614;2022-07-23T12:35:12;20.30;99.90
52943;DHT22;38809;53.300;6.614;2022-07-23T12:37:40;20.30;99.90
52943;DHT22;38809;53.300;6.614;2022-07-23T12:42:47;20.50;99.90
52943;DHT22;38809;53.300;6.614;2022-07-23T12:45:13;20.50;99.90
52943;DHT22;38809;53.300;6.614;2022-07-23T12:48:03;20.40;99.90
52943;DHT22;38809;53.300;6.614;2022-07-23T12:50:50;20.30;99.90
52943;DHT22;38809;53.300;6.614;2022-07-23T12:53:25;20.40;99.90
52943;DHT22;38809;53.300;6.614;2022-07-23T12:56:00;20.50;99.90
52943;DHT22;38809;53.300;6.614;2022-07-23T12:58:26;20.60;99.90
52943;DHT22;38809;53.300;6.614;2022-07-23T13:00:58;20.60;99.90
52943;DHT22;38809;53.300;6.614;2022-07-23T13:03:39;20.70;99.90
52943;DHT22;38809;53.300;6.614;2022-07-23T13:06:08;20.50;99.90
52943;DHT22;38809;53.300;6.614;2022-07-23T13:08:35;20.90;99.90
52943;DHT22;38809;53.300;6.614;2022-07-23T13:11:01;21.00;99.90
52943;DHT22;38809;53.300;6.614;2022-07-23T13:13:29;21.30;99.90
52943;DHT22;38809;53.300;6.614;2022-07-23T13:15:57;21.50;99.90
52943;DHT22;38809;53.300;6.614;2022-07-23T13:18:23;21.10;99.90
52943;DHT22;38809;53.300;6.614;2022-07-23T13:20:49;21.30;99.90
52943;DHT22;38809;53.300;6.614;2022-07-23T13:23:16;21.50;99.90
52943;DHT22;38809;53.300;6.614;2022-07-23T13:25:42;21.50;99.90
52943;DHT22;38809;53.300;6.614;2022-07-23T13:28:08;21.40;99.90
52943;DHT22;38809;53.300;6.614;2022-07-23T13:30:33;21.40;99.90
52943;DHT22;38809;53.300;6.614;2022-07-23T13:33:01;21.50;99.90
52943;DHT22;38809;53.300;6.614;2022-07-23T13:35:26;21.20;99.90
52943;DHT22;38809;53.300;6.614;2022-07-23T13:37:52;21.10;99.90
52943;DHT22;38809;53.300;6.614;2022-07-23T13:40:18;21.40;99.90
52943;DHT22;38809;53.300;6.614;2022-07-23T13:42:44;21.40;99.90
52943;DHT22;38809;53.300;6.614;2022-07-23T13:45:10;21.00;99.90
52943;DHT22;38809;53.300;6.614;2022-07-23T13:47:36;21.10;99.90
52943;DHT22;38809;53.300;6.614;2022-07-23T13:50:02;20.90;99.90
52943;DHT22;38809;53.300;6.614;2022-07-23T13:52:28;21.00;99.90
52943;DHT22;38809;53.300;6.614;2022-07-23T13:54:53;21.20;99.90
52943;DHT22;38809;53.300;6.614;2022-07-23T13:57:19;21.30;99.90
52943;DHT22;38809;53.300;6.614;2022-07-23T13:59:45;21.30;99.90
52943;DHT22;38809;53.300;6.614;2022-07-23T14:02:11;21.10;99.90
52943;DHT22;38809;53.300;6.614;2022-07-23T14:04:40;21.50;99.90
52943;DHT22;38809;53.300;6.614;2022-07-23T14:07:06;21.50;99.90
52943;DHT22;38809;53.300;6.614;2022-07-23T14:09:32;21.10;99.90
52943;DHT22;38809;53.300;6.614;2022-07-23T14:11:59;21.00;99.90
52943;DHT22;38809;53.300;6.614;2022-07-23T14:14:25;21.30;99.90
52943;DHT22;38809;53.300;6.614;2022-07-23T14:16:51;21.30;99.90
52943;DHT22;38809;53.300;6.614;2022-07-23T14:19:16;21.30;99.90
52943;DHT22;38809;53.300;6.614;2022-07-23T14:21:42;21.40;99.90
52943;DHT22;38809;53.300;6.614;2022-07-23T14:24:08;21.30;99.90
52943;DHT22;38809;53.300;6.614;2022-07-23T14:26:34;21.40;99.90
52943;DHT22;38809;53.300;6.614;2022-07-23T14:28:59;21.20;99.90
52943;DHT22;38809;53.300;6.614;2022-07-23T14:31:26;21.40;99.90
52943;DHT22;38809;53.300;6.614;2022-07-23T14:33:52;21.60;99.90
52943;DHT22;38809;53.300;6.614;2022-07-23T14:36:17;21.60;99.90
52943;DHT22;38809;53.300;6.614;2022-07-23T14:38:43;21.20;99.90
52943;DHT22;38809;53.300;6.614;2022-07-23T14:41:09;21.10;99.90
52943;DHT22;38809;53.300;6.614;2022-07-23T14:43:36;21.30;99.90
52943;DHT22;38809;53.300;6.614;2022-07-23T14:46:02;21.50;99.90
52943;DHT22;38809;53.300;6.614;2022-07-23T14:48:28;21.40;99.90
52943;DHT22;38809;53.300;6.614;2022-07-23T14:50:53;21.30;99.90
52943;DHT22;38809;53.300;6.614;2022-07-23T14:53:19;21.30;99.90
52943;DHT22;38809;53.300;6.614;2022-07-23T14:55:45;21.50;99.90
52943;DHT22;38809;53.300;6.614;2022-07-23T14:58:10;21.30;99.90
52943;DHT22;38809;53.300;6.614;2022-07-23T15:00:36;21.30;99.90
52943;DHT22;38809;53.300;6.614;2022-07-23T15:03:02;21.20;99.90
52943;DHT22;38809;53.300;6.614;2022-07-23T15:05:28;21.20;99.90
52943;DHT22;38809;53.300;6.614;2022-07-23T15:07:54;20.80;99.90
52943;DHT22;38809;53.300;6.614;2022-07-23T15:10:20;21.00;99.90
52943;DHT22;38809;53.300;6.614;2022-07-23T15:12:46;20.90;99.90
52943;DHT22;38809;53.300;6.614;2022-07-23T15:15:12;21.10;99.90
52943;DHT22;38809;53.300;6.614;2022-07-23T15:17:38;20.80;99.90
52943;DHT22;38809;53.300;6.614;2022-07-23T15:20:05;21.00;99.90
52943;DHT22;38809;53.300;6.614;2022-07-23T15:22:31;21.00;99.90
52943;DHT22;38809;53.300;6.614;2022-07-23T15:24:57;21.30;99.90
52943;DHT22;38809;53.300;6.614;2022-07-23T15:27:22;20.90;99.90
52943;DHT22;38809;53.300;6.614;2022-07-23T15:29:48;20.80;99.90
52943;DHT22;38809;53.300;6.614;2022-07-23T15:32:14;21.20;99.90
52943;DHT22;38809;53.300;6.614;2022-07-23T15:34:39;21.10;99.90
52943;DHT22;38809;53.300;6.614;2022-07-23T15:37:06;20.70;99.90
52943;DHT22;38809;53.300;6.614;2022-07-23T15:39:32;20.70;99.90
52943;DHT22;38809;53.300;6.614;2022-07-23T15:41:59;20.70;99.90
52943;DHT22;38809;53.300;6.614;2022-07-23T15:44:26;20.80;99.90
52943;DHT22;38809;53.300;6.614;2022-07-23T15:46:51;20.60;99.90
52943;DHT22;38809;53.300;6.614;2022-07-23T15:49:17;20.60;99.90
52943;DHT22;38809;53.300;6.614;2022-07-23T15:51:43;20.60;99.90
52943;DHT22;38809;53.300;6.614;2022-07-23T15:54:09;20.80;99.90
52943;DHT22;38809;53.300;6.614;2022-07-23T15:56:34;20.60;99.90
52943;DHT22;38809;53.300;6.614;2022-07-23T15:59:00;20.70;99.90
52943;DHT22;38809;53.300;6.614;2022-07-23T16:01:26;20.70;99.90
52943;DHT22;38809;53.300;6.614;2022-07-23T16:03:58;20.60;99.90
52943;DHT22;38809;53.300;6.614;2022-07-23T16:06:25;20.50;99.90
52943;DHT22;38809;53.300;6.614;2022-07-23T16:08:51;20.50;99.90
52943;DHT22;38809;53.300;6.614;2022-07-23T16:11:17;20.40;99.90
52943;DHT22;38809;53.300;6.614;2022-07-23T16:13:43;20.40;99.90